首页
METAR-TAF:

METAR-TAF

机场 :

根西岛,

纬度: 49-26N, 经度: 002-36W, 海拔: 102米

当前天气观测

该预报发布于37分钟前的13:50 UTC
风速22节,风向西转西南,有时为32节阵风
温度 11°C
湿度 100%
气压 1023 hPa
能見度: 0450
阴天层低于100英尺
小毛毛雨, 雾

METAR: EGJB 231350Z 24022G32KT 0450 R27/0300 -DZ FG OVC000 11/11 Q1023

时间: 14:27 (14:27 UTC)

预报

该预报发布于3小时和23分钟前的11:04 UTC
预报有效从23日的 12点(UTC)到 23日的 21点(UTC)
风速24节,风向西转西南,有时为36节阵风
能見度: 0400
多云层低于100英尺
小毛毛雨, 雾
短暂存在
从 23日的 12点(UTC)到 23日的 21点(UTC)
能見度: 3000
多云层高于300英尺
轻雾
成为
从 23日的 17点(UTC)到 23日的 19点(UTC)
风速12节,风向西

TAF: EGJB 231104Z 2312/2321 25024G36KT 0400 -DZ FG BKN000 TEMPO 2312/2321 3000 BR BKN003 BECMG 2317/2319 26012KT

超过4000个机场的气象观测和天气预报(METAR&TAF报告)。

可查询的气象台以黄色和红色小点在地图上表示。

将鼠标移到小点上方,可查看气象台名称。

然后点击查看天气观测和预报。

如需切换地图:点击带黑十字的绿色按钮放大地图;点击带横线的绿色按钮缩小地图;或者点击绿色箭头查看邻近地区的地图。


METAR-TAF: